createdAt,value
2019-02-27T00:00:15.659Z,103533.00
2019-02-27T00:01:53.396Z,103532.00
2019-02-27T00:03:29.646Z,103534.00
2019-02-27T00:05:08.383Z,103541.00
2019-02-27T00:06:47.699Z,103537.00
2019-02-27T00:08:21.685Z,103533.00
2019-02-27T00:09:58.194Z,103528.00
2019-02-27T00:11:33.892Z,103533.00
2019-02-27T00:13:09.562Z,103532.00
2019-02-27T00:14:44.904Z,103535.00
2019-02-27T00:16:20.276Z,103525.00
2019-02-27T00:17:55.721Z,103526.00
2019-02-27T00:19:31.888Z,103527.00
2019-02-27T00:21:10.153Z,103524.00
2019-02-27T00:22:44.414Z,103518.00
2019-02-27T00:24:19.799Z,103515.00
2019-02-27T00:25:55.243Z,103513.00
2019-02-27T00:27:30.573Z,103522.00
2019-02-27T00:29:05.957Z,103513.00
2019-02-27T00:30:41.322Z,103524.00
2019-02-27T00:32:18.637Z,103508.00
2019-02-27T00:33:53.769Z,103516.00
2019-02-27T00:35:29.785Z,103505.00
2019-02-27T00:37:05.153Z,103505.00
2019-02-27T00:38:40.535Z,103507.00
2019-02-27T00:40:15.983Z,103507.00
2019-02-27T00:41:51.352Z,103505.00
2019-02-27T00:43:28.455Z,103497.00
2019-02-27T00:45:06.798Z,103504.00
2019-02-27T00:46:46.086Z,103497.00
2019-02-27T00:48:18.509Z,103491.00
2019-02-27T00:49:54.871Z,103491.00
2019-02-27T00:51:30.543Z,103492.00
2019-02-27T00:53:05.919Z,103492.00
2019-02-27T00:54:41.311Z,103491.00
2019-02-27T00:56:16.984Z,103491.00
2019-02-27T00:57:54.353Z,103498.00
2019-02-27T00:59:32.884Z,103496.00
2019-02-27T01:01:06.938Z,103492.00
2019-02-27T01:02:42.334Z,103491.00
2019-02-27T01:04:17.697Z,103493.00
2019-02-27T01:05:53.063Z,103479.00
2019-02-27T01:07:28.433Z,103486.00
2019-02-27T01:09:06.371Z,103485.00
2019-02-27T01:10:45.316Z,103488.00
2019-02-27T01:12:22.874Z,103490.00
2019-02-27T01:13:59.075Z,103482.00
2019-02-27T01:15:34.453Z,103484.00
2019-02-27T01:17:09.811Z,103481.00
2019-02-27T01:18:45.511Z,103483.00
2019-02-27T01:20:20.881Z,103486.00
2019-02-27T01:21:56.265Z,103484.00
2019-02-27T01:23:31.676Z,103490.00
2019-02-27T01:25:07.930Z,103478.00
2019-02-27T01:26:43.293Z,103477.00
2019-02-27T01:28:18.665Z,103473.00
2019-02-27T01:29:54.062Z,103474.00
2019-02-27T01:31:29.695Z,103476.00
2019-02-27T01:33:05.140Z,103470.00
2019-02-27T01:34:44.263Z,103469.00
2019-02-27T01:36:17.844Z,103474.00
2019-02-27T01:37:53.222Z,103478.00
2019-02-27T01:39:28.601Z,103481.00
2019-02-27T01:41:03.965Z,103473.00
2019-02-27T01:42:39.344Z,103473.00
2019-02-27T01:44:14.730Z,103467.00
2019-02-27T01:45:51.884Z,103461.00
2019-02-27T01:47:27.172Z,103451.00
2019-02-27T01:49:02.545Z,103450.00
2019-02-27T01:50:39.450Z,103450.00
2019-02-27T01:52:14.822Z,103458.00
2019-02-27T01:53:50.199Z,103458.00
2019-02-27T01:55:25.573Z,103448.00
2019-02-27T01:57:02.920Z,103449.00
2019-02-27T01:58:38.010Z,103451.00
2019-02-27T02:00:13.815Z,103447.00
2019-02-27T02:01:49.756Z,103444.00
2019-02-27T02:03:25.404Z,103452.00
2019-02-27T02:05:00.858Z,103458.00
2019-02-27T02:06:36.313Z,103451.00
2019-02-27T02:08:13.824Z,103445.00
2019-02-27T02:09:48.769Z,103444.00
2019-02-27T02:11:24.158Z,103437.00
2019-02-27T02:13:15.285Z,103436.00
2019-02-27T02:15:03.418Z,103435.00
2019-02-27T02:16:56.117Z,103440.00
2019-02-27T02:19:22.024Z,103441.00
2019-02-27T02:21:35.084Z,103441.00
2019-02-27T02:23:44.890Z,103441.00
2019-02-27T02:25:43.311Z,103435.00
2019-02-27T02:27:35.144Z,103437.00
2019-02-27T02:29:53.667Z,103435.00
2019-02-27T02:31:41.715Z,103438.00
2019-02-27T02:33:46.771Z,103438.00
2019-02-27T02:35:55.422Z,103432.00
2019-02-27T02:37:38.311Z,103443.00
2019-02-27T02:39:35.830Z,103436.00
2019-02-27T02:41:21.576Z,103434.00
2019-02-27T02:43:31.739Z,103426.00
2019-02-27T02:45:14.414Z,103432.00
2019-02-27T02:46:57.162Z,103415.00
2019-02-27T02:48:54.292Z,103418.00
2019-02-27T02:50:53.934Z,103415.00
2019-02-27T02:52:52.780Z,103414.00
2019-02-27T02:54:47.491Z,103408.00
2019-02-27T02:56:36.559Z,103401.00
2019-02-27T02:58:37.273Z,103402.00
2019-02-27T03:00:40.834Z,103400.00
2019-02-27T03:02:35.521Z,103401.00
2019-02-27T03:04:30.121Z,103397.00
2019-02-27T03:06:39.289Z,103400.00
2019-02-27T03:08:33.269Z,103391.00
2019-02-27T03:10:42.473Z,103388.00
2019-02-27T03:12:52.234Z,103380.00
2019-02-27T03:14:56.301Z,103376.00
2019-02-27T03:16:45.148Z,103379.00
2019-02-27T03:18:29.589Z,103381.00
2019-02-27T03:20:38.485Z,103377.00
2019-02-27T03:22:30.406Z,103370.00
2019-02-27T03:24:14.022Z,103376.00
2019-02-27T03:26:00.580Z,103377.00
2019-02-27T03:27:49.488Z,103382.00
2019-02-27T03:29:58.235Z,103380.00
2019-02-27T03:32:00.028Z,103378.00
2019-02-27T03:34:05.378Z,103374.00
2019-02-27T03:36:04.422Z,103376.00
2019-02-27T03:38:07.979Z,103373.00
2019-02-27T03:40:22.522Z,103366.00
2019-02-27T03:42:26.450Z,103359.00
2019-02-27T03:44:25.816Z,103366.00
2019-02-27T03:46:17.570Z,103362.00
2019-02-27T03:48:27.767Z,103358.00
2019-02-27T03:50:49.889Z,103350.00
2019-02-27T03:52:53.566Z,103356.00
2019-02-27T03:54:42.387Z,103359.00
2019-02-27T03:56:34.499Z,103360.00
2019-02-27T03:58:31.950Z,103363.00
2019-02-27T04:00:29.801Z,103357.00
2019-02-27T04:02:31.976Z,103359.00
2019-02-27T04:04:19.850Z,103351.00
2019-02-27T04:06:21.603Z,103348.00
2019-02-27T04:08:32.098Z,103352.00
2019-02-27T04:10:07.563Z,103341.00
2019-02-27T04:11:42.943Z,103342.00
2019-02-27T04:13:18.321Z,103345.00
2019-02-27T04:14:53.702Z,103344.00
2019-02-27T04:16:30.423Z,103341.00
2019-02-27T04:18:04.368Z,103344.00
2019-02-27T04:19:40.425Z,103350.00
2019-02-27T04:21:16.099Z,103349.00
2019-02-27T04:22:51.465Z,103350.00
2019-02-27T04:24:26.853Z,103342.00
2019-02-27T04:26:05.451Z,103347.00
2019-02-27T04:27:39.331Z,103350.00
2019-02-27T04:29:14.707Z,103348.00
2019-02-27T04:30:51.970Z,103351.00
2019-02-27T04:32:27.823Z,103348.00
2019-02-27T04:34:03.596Z,103354.00
2019-02-27T04:35:39.668Z,103360.00
2019-02-27T04:37:17.725Z,103362.00
2019-02-27T04:38:53.636Z,103354.00
2019-02-27T04:40:29.005Z,103360.00
2019-02-27T04:42:04.396Z,103361.00
2019-02-27T04:43:40.024Z,103367.00
2019-02-27T04:45:15.716Z,103367.00
2019-02-27T04:46:54.792Z,103367.00
2019-02-27T04:48:30.058Z,103369.00
2019-02-27T04:50:10.847Z,103357.00
2019-02-27T04:51:44.294Z,103371.00
2019-02-27T04:53:19.670Z,103363.00
2019-02-27T04:54:55.057Z,103365.00
2019-02-27T04:56:30.455Z,103370.00
2019-02-27T04:58:08.562Z,103367.00
2019-02-27T04:59:42.913Z,103372.00
2019-02-27T05:01:18.302Z,103372.00
2019-02-27T05:02:54.119Z,103371.00
2019-02-27T05:04:34.936Z,103374.00
2019-02-27T05:06:06.643Z,103365.00
2019-02-27T05:07:42.022Z,103364.00
2019-02-27T05:09:17.720Z,103366.00
2019-02-27T05:10:53.105Z,103362.00
2019-02-27T05:12:28.486Z,103367.00
2019-02-27T05:14:04.063Z,103366.00
2019-02-27T05:15:40.584Z,103365.00
2019-02-27T05:17:15.961Z,103360.00
2019-02-27T05:18:51.333Z,103362.00
2019-02-27T05:20:26.979Z,103362.00
2019-02-27T05:22:02.365Z,103365.00
2019-02-27T05:23:38.730Z,103370.00
2019-02-27T05:25:15.141Z,103365.00
2019-02-27T05:27:04.201Z,103366.00
2019-02-27T05:28:40.729Z,103360.00
2019-02-27T05:30:16.106Z,103374.00
2019-02-27T05:31:53.173Z,103366.00
2019-02-27T05:33:28.585Z,103375.00
2019-02-27T05:35:04.161Z,103366.00
2019-02-27T05:36:39.534Z,103367.00
2019-02-27T05:38:14.911Z,103368.00
2019-02-27T05:39:51.235Z,103373.00
2019-02-27T05:41:27.070Z,103376.00
2019-02-27T05:43:02.466Z,103381.00
2019-02-27T05:44:37.833Z,103377.00
2019-02-27T05:46:15.084Z,103377.00
2019-02-27T05:47:50.522Z,103379.00
2019-02-27T05:49:27.372Z,103375.00
2019-02-27T05:51:05.007Z,103379.00
2019-02-27T05:52:41.175Z,103376.00
2019-02-27T05:54:16.842Z,103373.00
2019-02-27T05:55:52.261Z,103368.00
2019-02-27T05:57:27.667Z,103375.00
2019-02-27T05:59:03.064Z,103376.00
2019-02-27T06:00:38.720Z,103368.00
2019-02-27T06:21:39.772Z,103358.00
2019-02-27T06:23:16.099Z,103356.00
2019-02-27T06:24:51.483Z,103349.00
2019-02-27T06:26:26.865Z,103344.00
2019-02-27T06:28:02.246Z,103342.00
2019-02-27T06:29:37.624Z,103330.00
2019-02-27T06:31:12.995Z,103342.00
2019-02-27T06:32:48.391Z,103340.00
2019-02-27T06:34:24.867Z,103334.00
2019-02-27T06:36:00.730Z,103333.00
2019-02-27T06:37:36.114Z,103332.00
2019-02-27T06:39:11.491Z,103329.00
2019-02-27T06:40:46.883Z,103327.00
2019-02-27T06:42:22.381Z,103331.00
2019-02-27T06:43:58.910Z,103331.00
2019-02-27T06:45:34.822Z,103323.00
2019-02-27T06:47:10.204Z,103326.00
2019-02-27T06:48:46.712Z,103339.00
2019-02-27T06:50:25.181Z,103332.00
2019-02-27T06:51:59.210Z,103332.00
2019-02-27T06:53:34.821Z,103332.00
2019-02-27T06:55:13.596Z,103328.00
2019-02-27T06:56:49.026Z,103336.00
2019-02-27T06:58:25.385Z,103335.00
2019-02-27T07:00:02.943Z,103327.00
2019-02-27T07:01:39.028Z,103334.00
2019-02-27T07:03:14.422Z,103333.00
2019-02-27T07:04:50.925Z,103335.00
2019-02-27T07:06:26.313Z,103336.00
2019-02-27T07:08:04.334Z,103335.00
2019-02-27T07:09:38.785Z,103332.00
2019-02-27T07:11:14.167Z,103339.00
2019-02-27T07:12:54.462Z,103334.00
2019-02-27T07:14:27.614Z,103327.00
2019-02-27T07:16:03.013Z,103326.00
2019-02-27T07:17:38.387Z,103330.00
2019-02-27T07:19:15.766Z,103333.00
2019-02-27T07:20:51.991Z,103327.00
2019-02-27T07:22:27.372Z,103328.00
2019-02-27T07:24:04.286Z,103338.00
2019-02-27T07:25:41.922Z,103337.00
2019-02-27T07:27:16.776Z,103342.00
2019-02-27T07:28:52.249Z,103347.00
2019-02-27T07:30:28.047Z,103341.00
2019-02-27T07:32:03.417Z,103343.00
2019-02-27T07:33:40.573Z,103349.00
2019-02-27T07:35:16.793Z,103341.00
2019-02-27T07:36:52.721Z,103342.00
2019-02-27T07:38:28.645Z,103344.00
2019-02-27T07:40:08.542Z,103343.00
2019-02-27T07:41:42.759Z,103338.00
2019-02-27T07:43:18.190Z,103352.00
2019-02-27T07:44:53.574Z,103350.00
2019-02-27T07:46:28.967Z,103347.00
2019-02-27T07:48:04.369Z,103345.00
2019-02-27T07:49:39.778Z,103341.00
2019-02-27T07:51:15.159Z,103349.00
2019-02-27T07:52:52.083Z,103347.00
2019-02-27T07:54:29.009Z,103350.00
2019-02-27T07:56:05.175Z,103347.00
2019-02-27T07:57:40.563Z,103340.00
2019-02-27T07:59:15.959Z,103349.00
2019-02-27T08:00:51.679Z,103348.00
2019-02-27T08:02:27.071Z,103358.00
2019-02-27T08:04:02.865Z,103359.00
2019-02-27T08:05:38.244Z,103359.00
2019-02-27T08:07:13.629Z,103355.00
2019-02-27T08:08:49.017Z,103353.00
2019-02-27T08:10:26.500Z,103355.00
2019-02-27T08:12:01.886Z,103356.00
2019-02-27T08:13:37.271Z,103357.00
2019-02-27T08:15:16.266Z,103357.00
2019-02-27T08:16:51.687Z,103356.00
2019-02-27T08:18:30.024Z,103355.00
2019-02-27T08:20:05.629Z,103357.00
2019-02-27T08:21:41.096Z,103349.00
2019-02-27T08:23:16.966Z,103354.00
2019-02-27T08:24:52.335Z,103359.00
2019-02-27T08:26:27.714Z,103361.00
2019-02-27T08:28:04.163Z,103359.00
2019-02-27T08:29:39.881Z,103356.00
2019-02-27T08:31:15.528Z,103351.00
2019-02-27T08:32:50.986Z,103354.00
2019-02-27T08:34:28.061Z,103358.00
2019-02-27T08:36:03.445Z,103353.00
2019-02-27T08:37:38.822Z,103356.00
2019-02-27T08:39:14.215Z,103361.00
2019-02-27T08:40:49.886Z,103350.00
2019-02-27T08:42:25.288Z,103354.00
2019-02-27T08:44:00.681Z,103344.00
2019-02-27T08:45:36.059Z,103358.00
2019-02-27T08:47:11.464Z,103350.00
2019-02-27T08:48:49.896Z,103342.00
2019-02-27T08:50:25.055Z,103347.00
2019-02-27T08:52:00.436Z,103345.00
2019-02-27T08:53:35.973Z,103344.00
2019-02-27T08:55:19.791Z,103348.00
2019-02-27T08:56:51.935Z,103340.00
2019-02-27T08:58:29.323Z,103340.00
2019-02-27T09:00:15.228Z,103332.00
2019-02-27T09:01:55.234Z,103334.00
2019-02-27T09:03:27.687Z,103337.00
2019-02-27T09:05:03.078Z,103340.00
2019-02-27T09:06:38.464Z,103338.00
2019-02-27T09:08:13.850Z,103333.00
2019-02-27T09:09:51.617Z,103332.00
2019-02-27T09:11:26.558Z,103334.00
2019-02-27T09:13:05.740Z,103332.00
2019-02-27T09:14:39.044Z,103330.00
2019-02-27T09:16:14.415Z,103330.00
2019-02-27T09:17:49.803Z,103318.00
2019-02-27T09:19:25.208Z,103321.00
2019-02-27T09:21:00.774Z,103319.00
2019-02-27T09:22:36.723Z,103318.00
2019-02-27T09:24:13.061Z,103314.00
2019-02-27T09:25:56.771Z,103315.00
2019-02-27T09:27:25.768Z,103320.00
2019-02-27T09:29:01.469Z,103311.00
2019-02-27T09:30:36.847Z,103307.00
2019-02-27T09:32:12.369Z,103314.00
2019-02-27T09:33:47.686Z,103306.00
2019-02-27T09:35:23.078Z,103305.00
2019-02-27T09:36:58.458Z,103306.00
2019-02-27T09:38:33.851Z,103299.00
2019-02-27T09:40:19.803Z,103300.00
2019-02-27T09:41:55.175Z,103306.00
2019-02-27T09:43:32.311Z,103294.00
2019-02-27T09:45:27.370Z,103305.00
2019-02-27T09:47:02.746Z,103297.00
2019-02-27T09:48:38.141Z,103287.00
2019-02-27T09:50:23.644Z,103290.00
2019-02-27T09:51:59.026Z,103289.00
2019-02-27T09:53:36.777Z,103296.00
2019-02-27T09:55:12.077Z,103302.00
2019-02-27T09:56:47.460Z,103298.00
2019-02-27T09:58:22.887Z,103289.00
2019-02-27T09:59:58.235Z,103287.00
2019-02-27T10:01:35.208Z,103288.00
2019-02-27T10:03:10.687Z,103286.00
2019-02-27T10:04:46.070Z,103280.00
2019-02-27T10:06:21.447Z,103284.00
2019-02-27T10:07:57.479Z,103280.00
2019-02-27T10:09:34.800Z,103281.00
2019-02-27T10:11:10.079Z,103282.00
2019-02-27T10:12:45.469Z,103279.00
2019-02-27T10:14:20.855Z,103282.00
2019-02-27T10:16:00.607Z,103278.00
2019-02-27T10:17:33.330Z,103275.00
2019-02-27T10:19:08.708Z,103287.00
2019-02-27T10:20:44.094Z,103281.00
2019-02-27T10:22:20.297Z,103286.00
2019-02-27T10:23:56.556Z,103280.00
2019-02-27T10:25:31.951Z,103287.00
2019-02-27T10:27:07.328Z,103284.00
2019-02-27T10:28:44.056Z,103275.00
2019-02-27T10:30:21.661Z,103288.00
2019-02-27T10:31:58.301Z,103273.00
2019-02-27T10:33:34.132Z,103265.00
2019-02-27T10:35:11.645Z,103265.00
2019-02-27T10:36:47.808Z,103261.00
2019-02-27T10:38:26.100Z,103267.00
2019-02-27T10:40:00.947Z,103263.00
2019-02-27T10:41:37.776Z,103264.00
2019-02-27T10:43:13.521Z,103258.00
2019-02-27T10:44:48.914Z,103259.00
2019-02-27T10:46:24.422Z,103257.00
2019-02-27T10:48:00.826Z,103249.00
2019-02-27T10:49:38.247Z,103241.00
2019-02-27T10:51:13.746Z,103246.00
2019-02-27T10:52:50.086Z,103251.00
2019-02-27T10:54:25.579Z,103245.00
2019-02-27T10:56:00.974Z,103239.00
2019-02-27T10:57:38.337Z,103244.00
2019-02-27T10:59:13.520Z,103239.00
2019-02-27T11:00:50.155Z,103235.00
2019-02-27T11:02:25.537Z,103232.00
2019-02-27T11:04:03.185Z,103232.00
2019-02-27T11:05:41.134Z,103228.00
2019-02-27T11:07:16.788Z,103225.00
2019-02-27T11:08:52.306Z,103217.00
2019-02-27T11:10:27.700Z,103216.00
2019-02-27T11:12:03.078Z,103221.00
2019-02-27T11:13:38.491Z,103215.00
2019-02-27T11:15:22.251Z,103206.00
2019-02-27T11:17:01.978Z,103203.00
2019-02-27T11:18:35.062Z,103200.00
2019-02-27T11:20:12.792Z,103199.00
2019-02-27T11:21:48.178Z,103203.00
2019-02-27T11:23:23.563Z,103203.00
2019-02-27T11:24:58.961Z,103188.00
2019-02-27T11:26:34.686Z,103195.00
2019-02-27T11:28:11.212Z,103187.00
2019-02-27T11:29:46.603Z,103194.00
2019-02-27T11:31:22.338Z,103180.00
2019-02-27T11:32:58.059Z,103190.00
2019-02-27T11:34:33.500Z,103180.00
2019-02-27T11:36:08.904Z,103176.00
2019-02-27T11:37:46.867Z,103179.00
2019-02-27T11:39:21.766Z,103166.00
2019-02-27T11:40:57.226Z,103165.00
2019-02-27T11:42:33.871Z,103160.00
2019-02-27T11:44:09.256Z,103163.00
2019-02-27T11:45:44.730Z,103161.00
2019-02-27T11:47:20.114Z,103159.00
2019-02-27T11:48:57.072Z,103156.00
2019-02-27T11:50:32.577Z,103164.00
2019-02-27T11:52:07.960Z,103163.00
2019-02-27T11:53:43.343Z,103154.00
2019-02-27T11:55:24.466Z,103153.00
2019-02-27T11:57:00.124Z,103142.00
2019-02-27T11:58:38.465Z,103137.00
2019-02-27T12:00:31.308Z,103142.00
2019-02-27T12:02:06.754Z,103135.00
2019-02-27T12:03:45.720Z,103124.00
2019-02-27T12:05:19.232Z,103120.00
2019-02-27T12:06:54.617Z,103120.00
2019-02-27T12:08:30.973Z,103107.00
2019-02-27T12:10:17.146Z,103100.00
2019-02-27T12:11:52.521Z,103097.00
2019-02-27T12:13:27.907Z,103098.00
2019-02-27T12:15:03.294Z,103091.00
2019-02-27T12:16:39.764Z,103091.00
2019-02-27T12:18:15.139Z,103087.00
2019-02-27T12:19:50.799Z,103083.00
2019-02-27T12:21:26.309Z,103086.00
2019-02-27T12:23:01.660Z,103081.00
2019-02-27T12:24:37.042Z,103074.00
2019-02-27T12:26:12.430Z,103079.00
2019-02-27T12:27:49.981Z,103077.00
2019-02-27T12:29:26.553Z,103073.00
2019-02-27T12:31:02.663Z,103073.00
2019-02-27T12:32:38.043Z,103052.00
2019-02-27T12:34:13.422Z,103074.00
2019-02-27T12:35:48.813Z,103061.00
2019-02-27T12:37:28.423Z,103061.00
2019-02-27T12:39:01.277Z,103055.00
2019-02-27T12:40:38.292Z,103064.00
2019-02-27T12:42:13.683Z,103059.00
2019-02-27T12:43:52.120Z,103048.00
2019-02-27T12:45:29.789Z,103035.00
2019-02-27T12:47:05.727Z,103047.00
2019-02-27T12:48:46.103Z,103041.00
2019-02-27T12:50:21.108Z,103028.00
2019-02-27T12:51:56.570Z,103027.00
2019-02-27T12:53:33.541Z,103008.00
2019-02-27T12:55:09.605Z,103030.00
2019-02-27T12:56:45.006Z,103026.00
2019-02-27T12:58:20.383Z,103019.00
2019-02-27T12:59:55.763Z,103026.00
2019-02-27T13:01:31.155Z,103018.00
2019-02-27T13:03:09.323Z,103012.00
2019-02-27T13:04:43.602Z,103011.00
2019-02-27T13:06:19.779Z,103012.00
2019-02-27T13:07:55.157Z,103012.00
2019-02-27T13:09:30.540Z,103009.00
2019-02-27T13:11:07.933Z,103008.00
2019-02-27T13:12:43.009Z,103014.00
2019-02-27T13:14:18.384Z,103009.00
2019-02-27T13:15:53.771Z,103004.00
2019-02-27T13:17:29.216Z,102997.00
2019-02-27T13:19:07.043Z,103001.00
2019-02-27T13:20:43.000Z,102998.00
2019-02-27T13:22:19.897Z,102986.00
2019-02-27T13:23:55.840Z,102987.00
2019-02-27T13:25:31.190Z,102996.00
2019-02-27T13:27:09.203Z,102983.00
2019-02-27T13:28:46.005Z,102988.00
2019-02-27T13:30:25.754Z,102981.00
2019-02-27T13:32:01.137Z,102981.00
2019-02-27T13:33:38.779Z,102979.00
2019-02-27T13:35:14.317Z,102977.00
2019-02-27T13:36:50.169Z,102973.00
2019-02-27T13:38:25.551Z,102963.00
2019-02-27T13:40:01.370Z,102957.00
2019-02-27T13:41:37.862Z,102954.00
2019-02-27T13:43:13.261Z,102954.00
2019-02-27T13:44:48.897Z,102954.00
2019-02-27T13:46:24.276Z,102954.00
2019-02-27T13:48:04.909Z,102945.00
2019-02-27T13:49:37.692Z,102949.00
2019-02-27T13:51:13.147Z,102938.00
2019-02-27T13:52:50.549Z,102940.00
2019-02-27T13:54:26.032Z,102937.00
2019-02-27T13:56:01.423Z,102939.00
2019-02-27T13:57:36.794Z,102933.00
2019-02-27T13:59:12.437Z,102928.00
2019-02-27T14:00:47.817Z,102915.00
2019-02-27T14:02:23.930Z,102912.00
2019-02-27T14:03:59.297Z,102909.00
2019-02-27T14:05:36.089Z,102907.00
2019-02-27T14:07:11.755Z,102905.00
2019-02-27T14:08:47.127Z,102902.00
2019-02-27T14:10:28.964Z,102891.00
2019-02-27T14:12:04.432Z,102890.00
2019-02-27T14:13:43.762Z,102890.00
2019-02-27T14:15:20.451Z,102884.00
2019-02-27T14:16:56.072Z,102867.00
2019-02-27T14:18:31.440Z,102880.00
2019-02-27T14:20:14.065Z,102865.00
2019-02-27T14:21:49.459Z,102864.00
2019-02-27T14:23:24.848Z,102855.00
2019-02-27T14:25:00.326Z,102847.00
2019-02-27T14:26:38.360Z,102852.00
2019-02-27T14:28:12.736Z,102846.00
2019-02-27T14:29:48.388Z,102851.00
2019-02-27T14:31:24.152Z,102844.00
2019-02-27T14:32:59.519Z,102849.00
2019-02-27T14:34:34.899Z,102843.00
2019-02-27T14:36:10.644Z,102837.00
2019-02-27T14:37:49.651Z,102837.00
2019-02-27T14:39:24.223Z,102833.00
2019-02-27T14:40:59.595Z,102831.00
2019-02-27T14:42:34.978Z,102833.00
2019-02-27T14:44:10.360Z,102835.00
2019-02-27T14:45:46.019Z,102830.00
2019-02-27T14:47:22.471Z,102827.00
2019-02-27T14:48:57.854Z,102821.00
2019-02-27T14:50:34.515Z,102819.00
2019-02-27T14:52:14.051Z,102817.00
2019-02-27T14:53:52.032Z,102817.00
2019-02-27T14:55:24.535Z,102817.00
2019-02-27T14:56:59.918Z,102820.00
2019-02-27T14:58:35.296Z,102807.00
2019-02-27T15:00:26.112Z,102810.00
2019-02-27T15:02:01.562Z,102811.00
2019-02-27T15:03:36.932Z,102812.00
2019-02-27T15:05:12.374Z,102808.00
2019-02-27T15:06:50.351Z,102797.00
2019-02-27T15:08:25.289Z,102803.00
2019-02-27T15:10:01.395Z,102797.00
2019-02-27T15:11:38.223Z,102798.00
2019-02-27T15:13:13.611Z,102799.00
2019-02-27T15:14:48.985Z,102793.00
2019-02-27T15:16:24.365Z,102786.00
2019-02-27T15:18:00.551Z,102791.00
2019-02-27T15:19:36.205Z,102781.00
2019-02-27T15:21:13.158Z,102773.00
2019-02-27T15:22:48.934Z,102767.00
2019-02-27T15:24:24.314Z,102770.00
2019-02-27T15:25:59.706Z,102774.00
2019-02-27T15:27:35.086Z,102774.00
2019-02-27T15:29:10.467Z,102773.00
2019-02-27T15:30:46.610Z,102770.00
2019-02-27T15:32:22.701Z,102766.00
2019-02-27T15:33:59.199Z,102755.00
2019-02-27T15:35:34.574Z,102757.00
2019-02-27T15:37:09.959Z,102759.00
2019-02-27T15:38:46.027Z,102753.00
2019-02-27T15:40:30.382Z,102750.00
2019-02-27T15:42:08.500Z,102744.00
2019-02-27T15:43:43.018Z,102736.00
2019-02-27T15:45:21.105Z,102738.00
2019-02-27T15:46:56.731Z,102729.00
2019-02-27T15:48:33.264Z,102730.00
2019-02-27T15:50:22.433Z,102723.00
2019-02-27T15:51:55.877Z,102719.00
2019-02-27T15:53:31.761Z,102720.00
2019-02-27T15:55:09.444Z,102718.00
2019-02-27T15:56:45.556Z,102715.00
2019-02-27T15:58:21.014Z,102713.00
2019-02-27T15:59:56.384Z,102712.00
2019-02-27T16:01:33.072Z,102709.00
2019-02-27T16:03:11.742Z,102711.00
2019-02-27T16:04:45.650Z,102708.00
2019-02-27T16:06:21.016Z,102705.00
2019-02-27T16:07:56.399Z,102710.00
2019-02-27T16:09:32.465Z,102701.00
2019-02-27T16:11:08.016Z,102700.00
2019-02-27T16:12:43.402Z,102704.00
2019-02-27T16:14:18.763Z,102705.00
2019-02-27T16:15:54.140Z,102698.00
2019-02-27T16:17:31.341Z,102702.00
2019-02-27T16:19:07.984Z,102695.00
2019-02-27T16:20:47.006Z,102695.00
2019-02-27T16:22:21.718Z,102698.00
2019-02-27T16:23:57.097Z,102687.00
2019-02-27T16:25:32.480Z,102686.00
2019-02-27T16:27:07.865Z,102688.00
2019-02-27T16:28:43.250Z,102684.00
2019-02-27T16:30:32.361Z,102675.00
2019-02-27T16:32:05.421Z,102676.00
2019-02-27T16:33:40.793Z,102678.00
2019-02-27T16:35:16.174Z,102670.00
2019-02-27T16:36:51.561Z,102669.00
2019-02-27T16:38:28.422Z,102667.00
2019-02-27T16:40:06.806Z,102664.00
2019-02-27T16:41:42.175Z,102669.00
2019-02-27T16:43:17.568Z,102672.00
2019-02-27T16:44:54.382Z,102666.00
2019-02-27T16:46:30.012Z,102666.00
2019-02-27T16:48:05.988Z,102670.00
2019-02-27T16:49:41.364Z,102668.00
2019-02-27T16:51:16.749Z,102672.00
2019-02-27T16:52:52.263Z,102656.00
2019-02-27T16:54:27.661Z,102665.00
2019-02-27T16:56:04.224Z,102663.00
2019-02-27T16:57:39.615Z,102657.00
2019-02-27T16:59:14.992Z,102664.00
2019-02-27T17:00:54.373Z,102656.00
2019-02-27T17:02:27.444Z,102659.00
2019-02-27T17:04:02.815Z,102652.00
2019-02-27T17:05:40.387Z,102650.00
2019-02-27T17:07:15.253Z,102652.00
2019-02-27T17:08:50.633Z,102640.00
2019-02-27T17:10:32.781Z,102640.00
2019-02-27T17:12:08.132Z,102642.00
2019-02-27T17:13:43.520Z,102645.00
2019-02-27T17:15:18.893Z,102640.00
2019-02-27T17:16:54.261Z,102646.00
2019-02-27T17:18:29.639Z,102639.00
2019-02-27T17:20:12.569Z,102638.00
2019-02-27T17:21:50.321Z,102642.00
2019-02-27T17:23:25.711Z,102632.00
2019-02-27T17:25:01.072Z,102633.00
2019-02-27T17:26:39.169Z,102626.00
2019-02-27T17:28:15.240Z,102627.00
2019-02-27T17:29:51.705Z,102622.00
2019-02-27T17:31:27.551Z,102624.00
2019-02-27T17:33:04.264Z,102624.00
2019-02-27T17:34:40.016Z,102616.00
2019-02-27T17:36:15.400Z,102618.00
2019-02-27T17:37:51.021Z,102612.00
2019-02-27T17:39:28.950Z,102615.00
2019-02-27T17:41:03.489Z,102616.00
2019-02-27T17:42:38.867Z,102620.00
2019-02-27T17:44:15.327Z,102610.00
2019-02-27T17:45:50.708Z,102608.00
2019-02-27T17:47:28.812Z,102606.00
2019-02-27T17:49:03.175Z,102606.00
2019-02-27T17:50:38.551Z,102611.00
2019-02-27T17:52:14.822Z,102599.00
2019-02-27T17:53:51.685Z,102609.00
2019-02-27T17:55:27.071Z,102596.00
2019-02-27T17:57:02.515Z,102596.00
2019-02-27T17:58:37.899Z,102594.00
2019-02-27T18:00:28.583Z,102585.00
2019-02-27T18:02:04.043Z,102587.00
2019-02-27T18:03:41.822Z,102586.00
2019-02-27T18:05:17.010Z,102584.00
2019-02-27T18:06:52.394Z,102584.00
2019-02-27T18:08:27.772Z,102578.00
2019-02-27T18:10:03.512Z,102578.00
2019-02-27T18:11:40.017Z,102576.00
2019-02-27T18:13:15.408Z,102569.00
2019-02-27T18:14:50.784Z,102570.00
2019-02-27T18:16:27.333Z,102570.00
2019-02-27T18:18:03.411Z,102572.00
2019-02-27T18:19:38.793Z,102557.00
2019-02-27T18:21:14.155Z,102557.00
2019-02-27T18:22:50.327Z,102565.00
2019-02-27T18:24:25.899Z,102564.00
2019-02-27T18:26:01.275Z,102556.00
2019-02-27T18:27:38.060Z,102557.00
2019-02-27T18:29:13.453Z,102555.00
2019-02-27T18:30:52.842Z,102554.00
2019-02-27T18:32:25.919Z,102541.00
2019-02-27T18:34:01.569Z,102550.00
2019-02-27T18:35:37.018Z,102539.00
2019-02-27T18:37:13.954Z,102537.00
2019-02-27T18:38:49.480Z,102538.00
2019-02-27T18:40:24.855Z,102535.00
2019-02-27T18:42:00.245Z,102523.00
2019-02-27T18:43:35.655Z,102529.00
2019-02-27T18:45:21.234Z,102526.00
2019-02-27T18:46:59.419Z,102523.00
2019-02-27T18:48:34.010Z,102521.00
2019-02-27T18:50:13.696Z,102515.00
2019-02-27T18:51:49.072Z,102513.00
2019-02-27T18:53:24.459Z,102509.00
2019-02-27T18:55:00.805Z,102517.00
2019-02-27T18:56:36.926Z,102509.00
2019-02-27T18:58:13.532Z,102502.00
2019-02-27T18:59:48.926Z,102500.00